Actual water levels and discharges of Morava river

Lanžhot

Date and time (UTC) H (cm) Q (m³/s)
8. 2. 2023 17:50 75 40.1
8. 2. 2023 17:00 75 40
8. 2. 2023 16:00 76 41
8. 2. 2023 15:00 77 41
8. 2. 2023 14:00 79 42
8. 2. 2023 13:00 81 43
8. 2. 2023 12:00 83 45
8. 2. 2023 11:00 83 45
8. 2. 2023 10:00 82 44
8. 2. 2023 09:00 81 43
8. 2. 2023 08:00 81 43
8. 2. 2023 07:00 80 43
8. 2. 2023 06:00 80 43
8. 2. 2023 05:00 80 43

H - water level, Q - discharge

Strážnice

Date and time (UTC) H (cm) Q (m³/s)
8. 2. 2023 17:40 157 43.8
8. 2. 2023 17:00 156 43
8. 2. 2023 16:00 154 42
8. 2. 2023 15:00 152 41
8. 2. 2023 14:00 151 41
8. 2. 2023 13:00 151 41
8. 2. 2023 12:00 151 41
8. 2. 2023 11:00 152 41
8. 2. 2023 10:00 152 41
8. 2. 2023 09:00 154 42
8. 2. 2023 08:00 156 43
8. 2. 2023 07:00 159 45
8. 2. 2023 06:00 160 45
8. 2. 2023 05:00 162 46

H - water level, Q - discharge
more information

Spytihněv

Date and time (UTC) H (cm) Q (m³/s)
8. 2. 2023 17:40 135 40.1
8. 2. 2023 17:00 135 40
8. 2. 2023 16:00 135 40
8. 2. 2023 15:00 135 40
8. 2. 2023 14:00 135 40
8. 2. 2023 13:00 134 39
8. 2. 2023 12:00 129 36
8. 2. 2023 11:00 125 34
8. 2. 2023 10:00 125 34
8. 2. 2023 09:00 125 34
8. 2. 2023 08:00 125 34
8. 2. 2023 07:00 125 34
8. 2. 2023 06:00 125 34
8. 2. 2023 05:00 125 34

H - water level, Q - discharge

Kroměříž

Date and time (UTC) H (cm) Q (m³/s)
8. 2. 2023 17:40 162 35.8
8. 2. 2023 17:00 162 36
8. 2. 2023 16:00 162 36
8. 2. 2023 15:00 163 37
8. 2. 2023 14:00 163 37
8. 2. 2023 13:00 163 37
8. 2. 2023 12:00 161 35
8. 2. 2023 11:00 159 34
8. 2. 2023 10:00 158 33
8. 2. 2023 09:00 157 32
8. 2. 2023 08:00 157 32
8. 2. 2023 07:00 156 32
8. 2. 2023 06:00 156 32
8. 2. 2023 05:00 156 32

H - water level, Q - discharge
more information

Olomouc-Nové Sady tok

Date and time (UTC) H (cm) Q (m³/s)
8. 2. 2023 17:50 125 20.7
8. 2. 2023 17:00 125 21
8. 2. 2023 16:00 124 20
8. 2. 2023 15:00 123 20
8. 2. 2023 14:00 124 20
8. 2. 2023 13:00 124 20
8. 2. 2023 12:00 123 20
8. 2. 2023 11:00 122 20
8. 2. 2023 10:00 120 19
8. 2. 2023 09:00 119 19
8. 2. 2023 08:00 118 18
8. 2. 2023 07:00 118 18
8. 2. 2023 06:00 118 18
8. 2. 2023 05:00 118 18

H - water level, Q - discharge

Moravičany

Date and time (UTC) H (cm) Q (m³/s)
8. 2. 2023 17:50 86 8
8. 2. 2023 17:00 87 8
8. 2. 2023 16:00 87 8
8. 2. 2023 15:00 87 8
8. 2. 2023 14:00 88 9
8. 2. 2023 13:00 87 8
8. 2. 2023 12:00 87 8
8. 2. 2023 11:00 87 8
8. 2. 2023 10:00 88 9
8. 2. 2023 09:00 89 9
8. 2. 2023 08:00 88 9
8. 2. 2023 07:00 88 9
8. 2. 2023 06:00 88 9
8. 2. 2023 05:00 88 9

H - water level, Q - discharge
Source data
Labe Basin Vltava Basin Povodí Moravy ČHMÚ